sensor_id;sensor_type;location;lat;lon;timestamp;pressure;altitude;pressure_sealevel;temperature;humidity
32759;BME280;19125;52.360;9.974;2024-02-21T00:01:16;87431.66;;;-145.17;66.75
32759;BME280;19125;52.360;9.974;2024-02-21T00:03:41;87443.56;;;-145.17;66.54
32759;BME280;19125;52.360;9.974;2024-02-21T00:06:07;87461.44;;;-145.17;66.25
32759;BME280;19125;52.360;9.974;2024-02-21T00:08:32;87497.16;;;-145.17;67.08
32759;BME280;19125;52.360;9.974;2024-02-21T00:10:57;87600.38;;;-145.17;66.31
32759;BME280;19125;52.360;9.974;2024-02-21T00:13:23;87683.75;;;-145.17;66.49
32759;BME280;19125;52.360;9.974;2024-02-21T00:15:48;87727.44;;;-145.17;66.17
32759;BME280;19125;52.360;9.974;2024-02-21T00:18:13;87818.75;;;-145.17;66.07
32759;BME280;19125;52.360;9.974;2024-02-21T00:20:39;87842.56;;;-145.17;66.15
32759;BME280;19125;52.360;9.974;2024-02-21T00:23:04;87860.44;;;-145.17;66.20
32759;BME280;19125;52.360;9.974;2024-02-21T00:25:30;87945.81;;;-145.17;66.25
32759;BME280;19125;52.360;9.974;2024-02-21T00:27:55;87910.06;;;-145.17;65.79
32759;BME280;19125;52.360;9.974;2024-02-21T00:30:21;87941.84;;;-145.17;65.81
32759;BME280;19125;52.360;9.974;2024-02-21T00:32:46;87929.91;;;-145.17;65.66
32759;BME280;19125;52.360;9.974;2024-02-21T00:35:11;87910.06;;;-145.17;65.82
32759;BME280;19125;52.360;9.974;2024-02-21T00:37:37;87953.75;;;-145.17;66.07
32759;BME280;19125;52.360;9.974;2024-02-21T00:40:03;87939.84;;;-145.17;66.03
32759;BME280;19125;52.360;9.974;2024-02-21T00:42:29;87916.03;;;-145.17;65.82
32759;BME280;19125;52.360;9.974;2024-02-21T00:44:54;87969.63;;;-145.17;65.53
32759;BME280;19125;52.360;9.974;2024-02-21T00:47:19;87953.75;;;-145.17;66.00
32759;BME280;19125;52.360;9.974;2024-02-21T00:49:44;87965.66;;;-145.17;65.92
32759;BME280;19125;52.360;9.974;2024-02-21T00:52:10;87991.47;;;-145.17;65.58
32759;BME280;19125;52.360;9.974;2024-02-21T00:54:35;87953.75;;;-145.17;65.95
32759;BME280;19125;52.360;9.974;2024-02-21T00:57:00;87933.88;;;-145.17;65.58
32759;BME280;19125;52.360;9.974;2024-02-21T00:59:26;87981.53;;;-145.17;65.52
32759;BME280;19125;52.360;9.974;2024-02-21T01:01:51;87971.63;;;-145.17;65.72
32759;BME280;19125;52.360;9.974;2024-02-21T01:04:16;87973.59;;;-145.17;65.53
32759;BME280;19125;52.360;9.974;2024-02-21T01:06:42;87985.50;;;-145.17;65.70
32759;BME280;19125;52.360;9.974;2024-02-21T01:09:09;88021.25;;;-145.17;65.46
32759;BME280;19125;52.360;9.974;2024-02-21T01:11:35;87993.44;;;-145.17;65.31
32759;BME280;19125;52.360;9.974;2024-02-21T01:14:00;87973.59;;;-145.17;65.17
32759;BME280;19125;52.360;9.974;2024-02-21T01:16:26;87991.47;;;-145.17;65.39
32759;BME280;19125;52.360;9.974;2024-02-21T01:18:51;88049.03;;;-145.17;64.98
32759;BME280;19125;52.360;9.974;2024-02-21T01:21:16;88023.22;;;-145.17;65.06
32759;BME280;19125;52.360;9.974;2024-02-21T01:23:41;87989.47;;;-145.17;65.25
32759;BME280;19125;52.360;9.974;2024-02-21T01:26:07;87995.44;;;-145.17;65.30
32759;BME280;19125;52.360;9.974;2024-02-21T01:28:34;88013.31;;;-145.17;64.83
32759;BME280;19125;52.360;9.974;2024-02-21T01:30:59;88017.28;;;-145.17;65.00
32759;BME280;19125;52.360;9.974;2024-02-21T01:33:24;88021.25;;;-145.17;64.69
32759;BME280;19125;52.360;9.974;2024-02-21T01:35:50;88025.22;;;-145.17;64.72
32759;BME280;19125;52.360;9.974;2024-02-21T01:38:15;88037.13;;;-145.17;64.87
32759;BME280;19125;52.360;9.974;2024-02-21T01:40:41;88025.22;;;-145.17;64.88
32759;BME280;19125;52.360;9.974;2024-02-21T01:43:16;88031.16;;;-145.17;64.33
32759;BME280;19125;52.360;9.974;2024-02-21T01:45:42;88023.22;;;-145.17;64.75
32759;BME280;19125;52.360;9.974;2024-02-21T01:48:07;88029.19;;;-145.17;64.27
32759;BME280;19125;52.360;9.974;2024-02-21T01:50:33;88009.34;;;-145.17;64.10
32759;BME280;19125;52.360;9.974;2024-02-21T01:52:58;87989.47;;;-145.17;64.16
32759;BME280;19125;52.360;9.974;2024-02-21T01:55:24;88005.34;;;-145.17;64.41
32759;BME280;19125;52.360;9.974;2024-02-21T01:57:50;87993.44;;;-145.17;64.15
32759;BME280;19125;52.360;9.974;2024-02-21T02:00:16;88025.22;;;-145.17;63.93
32759;BME280;19125;52.360;9.974;2024-02-21T02:02:41;87981.53;;;-145.17;63.96
32759;BME280;19125;52.360;9.974;2024-02-21T02:05:07;87993.44;;;-145.17;63.98
32759;BME280;19125;52.360;9.974;2024-02-21T02:07:33;87991.47;;;-145.17;63.53
32759;BME280;19125;52.360;9.974;2024-02-21T02:09:58;87945.81;;;-145.17;63.54
32759;BME280;19125;52.360;9.974;2024-02-21T02:12:24;87951.75;;;-145.17;63.54
32759;BME280;19125;52.360;9.974;2024-02-21T02:15:03;87989.47;;;-145.17;63.58
32759;BME280;19125;52.360;9.974;2024-02-21T02:17:30;87973.59;;;-145.17;63.54
32759;BME280;19125;52.360;9.974;2024-02-21T02:19:55;87929.91;;;-145.17;63.08
32759;BME280;19125;52.360;9.974;2024-02-21T02:22:23;87925.94;;;-145.17;62.86
32759;BME280;19125;52.360;9.974;2024-02-21T02:24:51;87890.22;;;-145.17;62.70
32759;BME280;19125;52.360;9.974;2024-02-21T02:27:17;87866.41;;;-145.17;63.08
32759;BME280;19125;52.360;9.974;2024-02-21T02:29:42;87854.47;;;-145.17;62.54
32759;BME280;19125;52.360;9.974;2024-02-21T02:32:07;87842.56;;;-145.17;62.40
32759;BME280;19125;52.360;9.974;2024-02-21T02:34:33;87838.59;;;-145.17;62.67
32759;BME280;19125;52.360;9.974;2024-02-21T02:36:58;87878.31;;;-145.17;62.67
32759;BME280;19125;52.360;9.974;2024-02-21T02:39:23;87838.59;;;-145.17;62.58
32759;BME280;19125;52.360;9.974;2024-02-21T02:41:49;87806.84;;;-145.17;62.27
32759;BME280;19125;52.360;9.974;2024-02-21T02:44:14;87834.63;;;-145.17;62.21
32759;BME280;19125;52.360;9.974;2024-02-21T02:46:42;87830.66;;;-145.17;62.27
32759;BME280;19125;52.360;9.974;2024-02-21T02:49:08;87818.75;;;-145.17;62.39
32759;BME280;19125;52.360;9.974;2024-02-21T02:51:33;87824.72;;;-145.17;62.71
32759;BME280;19125;52.360;9.974;2024-02-21T02:53:59;87820.72;;;-145.17;62.23
32759;BME280;19125;52.360;9.974;2024-02-21T02:56:24;87794.94;;;-145.17;62.17
32759;BME280;19125;52.360;9.974;2024-02-21T02:59:15;87785.00;;;-145.17;62.17
32759;BME280;19125;52.360;9.974;2024-02-21T03:01:40;87790.97;;;-145.17;62.12
32759;BME280;19125;52.360;9.974;2024-02-21T03:04:06;87818.75;;;-145.17;62.19
32759;BME280;19125;52.360;9.974;2024-02-21T03:06:31;87828.69;;;-145.17;62.08
32759;BME280;19125;52.360;9.974;2024-02-21T03:08:56;87816.75;;;-145.17;62.17
32759;BME280;19125;52.360;9.974;2024-02-21T03:11:22;87798.91;;;-145.17;62.12
32759;BME280;19125;52.360;9.974;2024-02-21T03:13:54;87787.00;;;-145.17;62.19
32759;BME280;19125;52.360;9.974;2024-02-21T03:16:19;87806.84;;;-145.17;62.23
32759;BME280;19125;52.360;9.974;2024-02-21T03:18:45;87814.78;;;-145.17;62.12
32759;BME280;19125;52.360;9.974;2024-02-21T03:21:10;87810.81;;;-145.17;62.33
32759;BME280;19125;52.360;9.974;2024-02-21T03:23:35;87814.78;;;-145.17;62.19
32759;BME280;19125;52.360;9.974;2024-02-21T03:26:01;87848.53;;;-145.17;62.46
32759;BME280;19125;52.360;9.974;2024-02-21T03:28:27;87814.78;;;-145.17;62.47
32759;BME280;19125;52.360;9.974;2024-02-21T03:30:52;87794.94;;;-145.17;62.12
32759;BME280;19125;52.360;9.974;2024-02-21T03:33:18;87804.84;;;-145.17;62.58
32759;BME280;19125;52.360;9.974;2024-02-21T03:35:45;87810.81;;;-145.17;61.99
32759;BME280;19125;52.360;9.974;2024-02-21T03:38:10;87798.91;;;-145.17;62.37
32759;BME280;19125;52.360;9.974;2024-02-21T03:40:35;87838.59;;;-145.17;62.57
32759;BME280;19125;52.360;9.974;2024-02-21T03:43:01;87854.47;;;-145.17;62.20
32759;BME280;19125;52.360;9.974;2024-02-21T03:45:26;87858.44;;;-145.17;62.17
32759;BME280;19125;52.360;9.974;2024-02-21T03:47:51;87846.53;;;-145.17;62.72
32759;BME280;19125;52.360;9.974;2024-02-21T03:50:17;87844.56;;;-145.17;62.02
32759;BME280;19125;52.360;9.974;2024-02-21T03:52:42;87810.81;;;-145.17;61.98
32759;BME280;19125;52.360;9.974;2024-02-21T03:55:08;87816.75;;;-145.17;62.33
32759;BME280;19125;52.360;9.974;2024-02-21T03:57:33;87830.66;;;-145.17;62.43
32759;BME280;19125;52.360;9.974;2024-02-21T03:59:58;87781.03;;;-145.17;62.33
32759;BME280;19125;52.360;9.974;2024-02-21T04:02:24;87755.22;;;-145.17;61.54
32759;BME280;19125;52.360;9.974;2024-02-21T04:04:49;87747.28;;;-145.17;61.88
32759;BME280;19125;52.360;9.974;2024-02-21T04:07:15;87711.56;;;-145.17;61.72
32759;BME280;19125;52.360;9.974;2024-02-21T04:09:40;87729.41;;;-145.17;61.23
32759;BME280;19125;52.360;9.974;2024-02-21T04:12:08;87711.56;;;-145.17;61.33
32759;BME280;19125;52.360;9.974;2024-02-21T04:14:34;87648.03;;;-145.17;61.33
32759;BME280;19125;52.360;9.974;2024-02-21T04:17:00;87638.09;;;-145.17;60.52
32759;BME280;19125;52.360;9.974;2024-02-21T04:19:25;87618.25;;;-145.17;60.68
32759;BME280;19125;52.360;9.974;2024-02-21T04:21:50;87556.72;;;-145.17;60.19
32759;BME280;19125;52.360;9.974;2024-02-21T04:24:16;87572.59;;;-145.17;60.19
32759;BME280;19125;52.360;9.974;2024-02-21T04:26:41;87548.78;;;-145.17;59.84
32759;BME280;19125;52.360;9.974;2024-02-21T04:29:07;87556.72;;;-145.17;60.25
32759;BME280;19125;52.360;9.974;2024-02-21T04:31:32;87556.72;;;-145.17;60.45
32759;BME280;19125;52.360;9.974;2024-02-21T04:33:58;87550.75;;;-145.17;60.21
32759;BME280;19125;52.360;9.974;2024-02-21T04:36:23;87532.91;;;-145.17;60.41
32759;BME280;19125;52.360;9.974;2024-02-21T04:38:49;87548.78;;;-145.17;60.60
32759;BME280;19125;52.360;9.974;2024-02-21T04:41:15;87532.91;;;-145.17;60.64
32759;BME280;19125;52.360;9.974;2024-02-21T04:43:40;87570.59;;;-145.17;60.37
32759;BME280;19125;52.360;9.974;2024-02-21T04:46:06;87538.84;;;-145.17;60.66
32759;BME280;19125;52.360;9.974;2024-02-21T04:48:31;87604.34;;;-145.17;60.81
32759;BME280;19125;52.360;9.974;2024-02-21T04:50:57;87580.53;;;-145.17;60.66
32759;BME280;19125;52.360;9.974;2024-02-21T04:53:22;87570.59;;;-145.17;60.49
32759;BME280;19125;52.360;9.974;2024-02-21T04:55:47;87586.50;;;-145.17;60.27
32759;BME280;19125;52.360;9.974;2024-02-21T04:58:13;87540.84;;;-145.17;60.29
32759;BME280;19125;52.360;9.974;2024-02-21T05:00:39;87544.81;;;-145.17;60.60
32759;BME280;19125;52.360;9.974;2024-02-21T05:03:04;87584.50;;;-145.17;60.39
32759;BME280;19125;52.360;9.974;2024-02-21T05:05:29;87578.56;;;-145.17;60.34
32759;BME280;19125;52.360;9.974;2024-02-21T05:07:55;87536.88;;;-145.17;60.52
32759;BME280;19125;52.360;9.974;2024-02-21T05:10:20;87528.91;;;-145.17;60.14
32759;BME280;19125;52.360;9.974;2024-02-21T05:12:46;87540.84;;;-145.17;60.16
32759;BME280;19125;52.360;9.974;2024-02-21T05:15:11;87495.19;;;-145.17;60.42
32759;BME280;19125;52.360;9.974;2024-02-21T05:17:36;87562.66;;;-145.17;59.99
32759;BME280;19125;52.360;9.974;2024-02-21T05:20:02;87501.13;;;-145.17;60.15
32759;BME280;19125;52.360;9.974;2024-02-21T05:22:28;87513.03;;;-145.17;60.54
32759;BME280;19125;52.360;9.974;2024-02-21T05:24:54;87513.03;;;-145.17;60.05
32759;BME280;19125;52.360;9.974;2024-02-21T05:27:19;87497.16;;;-145.17;59.68
32759;BME280;19125;52.360;9.974;2024-02-21T05:29:44;87517.00;;;-145.17;60.05
32759;BME280;19125;52.360;9.974;2024-02-21T05:32:10;87513.03;;;-145.17;59.91
32759;BME280;19125;52.360;9.974;2024-02-21T05:34:35;87497.16;;;-145.17;59.70
32759;BME280;19125;52.360;9.974;2024-02-21T05:37:00;87513.03;;;-145.17;59.95
32759;BME280;19125;52.360;9.974;2024-02-21T05:39:26;87503.13;;;-145.17;60.07
32759;BME280;19125;52.360;9.974;2024-02-21T05:41:51;87520.97;;;-145.17;60.01
32759;BME280;19125;52.360;9.974;2024-02-21T05:44:18;87552.75;;;-145.17;59.92
32759;BME280;19125;52.360;9.974;2024-02-21T05:46:44;87520.97;;;-145.17;60.21
32759;BME280;19125;52.360;9.974;2024-02-21T05:49:09;87501.13;;;-145.17;59.87
32759;BME280;19125;52.360;9.974;2024-02-21T05:51:35;87546.78;;;-145.17;60.15
32759;BME280;19125;52.360;9.974;2024-02-21T05:54:00;87532.91;;;-145.17;60.19
32759;BME280;19125;52.360;9.974;2024-02-21T05:56:26;87469.38;;;-145.17;60.13
32759;BME280;19125;52.360;9.974;2024-02-21T05:58:51;87501.13;;;-145.17;59.99
32759;BME280;19125;52.360;9.974;2024-02-21T06:01:17;87487.25;;;-145.17;59.99
32759;BME280;19125;52.360;9.974;2024-02-21T06:03:43;87499.16;;;-145.17;60.07
32759;BME280;19125;52.360;9.974;2024-02-21T06:06:09;87493.19;;;-145.17;60.07
32759;BME280;19125;52.360;9.974;2024-02-21T06:08:35;87513.03;;;-145.17;60.21
32759;BME280;19125;52.360;9.974;2024-02-21T06:11:00;87517.00;;;-145.17;60.19
32759;BME280;19125;52.360;9.974;2024-02-21T06:13:26;87568.63;;;-145.17;60.51
32759;BME280;19125;52.360;9.974;2024-02-21T06:15:52;87552.75;;;-145.17;60.31
32759;BME280;19125;52.360;9.974;2024-02-21T06:18:18;87592.44;;;-145.17;61.13
32759;BME280;19125;52.360;9.974;2024-02-21T06:20:44;87646.03;;;-145.17;61.31
32759;BME280;19125;52.360;9.974;2024-02-21T06:23:09;87681.78;;;-145.17;61.09
32759;BME280;19125;52.360;9.974;2024-02-21T06:25:35;87717.50;;;-145.17;61.70
32759;BME280;19125;52.360;9.974;2024-02-21T06:28:00;87739.34;;;-145.17;62.16
32759;BME280;19125;52.360;9.974;2024-02-21T06:30:25;87755.22;;;-145.17;61.63
32759;BME280;19125;52.360;9.974;2024-02-21T06:32:52;87769.13;;;-145.17;62.02
32759;BME280;19125;52.360;9.974;2024-02-21T06:35:17;87779.03;;;-145.17;62.37
32759;BME280;19125;52.360;9.974;2024-02-21T06:37:42;87759.19;;;-145.17;62.08
32759;BME280;19125;52.360;9.974;2024-02-21T06:40:10;87771.09;;;-145.17;62.07
32759;BME280;19125;52.360;9.974;2024-02-21T06:42:35;87802.88;;;-145.17;61.92
32759;BME280;19125;52.360;9.974;2024-02-21T06:45:01;87787.00;;;-145.17;61.65
32759;BME280;19125;52.360;9.974;2024-02-21T06:47:26;87753.25;;;-145.17;61.50
32759;BME280;19125;52.360;9.974;2024-02-21T06:49:52;87723.47;;;-145.17;61.60
32759;BME280;19125;52.360;9.974;2024-02-21T06:52:18;87731.41;;;-145.17;61.55
32759;BME280;19125;52.360;9.974;2024-02-21T06:54:46;87735.38;;;-145.17;61.78
32759;BME280;19125;52.360;9.974;2024-02-21T06:57:12;87711.56;;;-145.17;61.32
32759;BME280;19125;52.360;9.974;2024-02-21T06:59:39;87677.81;;;-145.17;61.29
32759;BME280;19125;52.360;9.974;2024-02-21T07:02:05;87675.81;;;-145.17;61.72
32759;BME280;19125;52.360;9.974;2024-02-21T07:04:30;87646.03;;;-145.17;61.15
32759;BME280;19125;52.360;9.974;2024-02-21T07:06:56;87675.81;;;-145.17;61.11
32759;BME280;19125;52.360;9.974;2024-02-21T07:09:21;87663.91;;;-145.17;61.37
32759;BME280;19125;52.360;9.974;2024-02-21T07:11:46;87687.72;;;-145.17;61.08
32759;BME280;19125;52.360;9.974;2024-02-21T07:14:14;87640.09;;;-145.17;61.00
32759;BME280;19125;52.360;9.974;2024-02-21T07:16:39;87671.84;;;-145.17;61.43
32759;BME280;19125;52.360;9.974;2024-02-21T07:19:05;87640.09;;;-145.17;60.90
32759;BME280;19125;52.360;9.974;2024-02-21T07:21:30;87620.25;;;-145.17;60.98
32759;BME280;19125;52.360;9.974;2024-02-21T07:23:55;87626.19;;;-145.17;60.86
32759;BME280;19125;52.360;9.974;2024-02-21T07:26:20;87644.06;;;-145.17;60.69
32759;BME280;19125;52.360;9.974;2024-02-21T07:28:47;87596.41;;;-145.17;60.96
32759;BME280;19125;52.360;9.974;2024-02-21T07:31:12;87618.25;;;-145.17;60.72
32759;BME280;19125;52.360;9.974;2024-02-21T07:33:37;87616.25;;;-145.17;60.39
32759;BME280;19125;52.360;9.974;2024-02-21T07:36:07;87568.63;;;-145.17;60.85
32759;BME280;19125;52.360;9.974;2024-02-21T07:38:33;87562.66;;;-145.17;60.43
32759;BME280;19125;52.360;9.974;2024-02-21T07:40:58;87576.56;;;-145.17;60.49
32759;BME280;19125;52.360;9.974;2024-02-21T07:43:24;87560.69;;;-145.17;60.27
32759;BME280;19125;52.360;9.974;2024-02-21T07:45:51;87528.91;;;-145.17;60.66
32759;BME280;19125;52.360;9.974;2024-02-21T07:48:18;87538.84;;;-145.17;60.15
32759;BME280;19125;52.360;9.974;2024-02-21T07:50:44;87600.38;;;-145.17;60.39
32759;BME280;19125;52.360;9.974;2024-02-21T07:53:09;87509.06;;;-145.17;60.33
32759;BME280;19125;52.360;9.974;2024-02-21T07:55:34;87473.34;;;-145.17;60.21
32759;BME280;19125;52.360;9.974;2024-02-21T07:58:00;87473.34;;;-145.17;59.91
32759;BME280;19125;52.360;9.974;2024-02-21T08:00:25;87503.13;;;-145.17;60.15
32759;BME280;19125;52.360;9.974;2024-02-21T08:02:50;87435.63;;;-145.17;59.58
32759;BME280;19125;52.360;9.974;2024-02-21T08:05:16;87439.59;;;-145.17;59.88
32759;BME280;19125;52.360;9.974;2024-02-21T08:07:41;87473.34;;;-145.17;59.67
32759;BME280;19125;52.360;9.974;2024-02-21T08:10:08;87471.34;;;-145.17;59.85
32759;BME280;19125;52.360;9.974;2024-02-21T08:12:33;87449.53;;;-145.17;59.66
32759;BME280;19125;52.360;9.974;2024-02-21T08:14:59;87459.44;;;-145.17;59.92
32759;BME280;19125;52.360;9.974;2024-02-21T08:17:25;87481.28;;;-145.17;59.54
32759;BME280;19125;52.360;9.974;2024-02-21T08:19:50;87429.66;;;-145.17;59.17
32759;BME280;19125;52.360;9.974;2024-02-21T08:22:16;87415.78;;;-145.17;59.52
32759;BME280;19125;52.360;9.974;2024-02-21T08:24:41;87380.03;;;-145.17;59.45
32759;BME280;19125;52.360;9.974;2024-02-21T08:27:07;87358.22;;;-145.17;59.05
32759;BME280;19125;52.360;9.974;2024-02-21T08:29:32;87372.09;;;-145.17;59.17
32759;BME280;19125;52.360;9.974;2024-02-21T08:31:57;87372.09;;;-145.17;58.93
32759;BME280;19125;52.360;9.974;2024-02-21T08:34:24;87386.00;;;-145.17;59.23
32759;BME280;19125;52.360;9.974;2024-02-21T08:36:50;87320.50;;;-145.17;58.93
32759;BME280;19125;52.360;9.974;2024-02-21T08:39:15;87332.41;;;-145.17;59.09
32759;BME280;19125;52.360;9.974;2024-02-21T08:41:43;87322.47;;;-145.17;58.97
32759;BME280;19125;52.360;9.974;2024-02-21T08:44:09;87328.44;;;-145.17;58.29
32759;BME280;19125;52.360;9.974;2024-02-21T08:46:34;87286.75;;;-145.17;58.34
32759;BME280;19125;52.360;9.974;2024-02-21T08:48:59;87284.78;;;-145.17;58.30
32759;BME280;19125;52.360;9.974;2024-02-21T08:51:25;87253.00;;;-145.17;58.29
32759;BME280;19125;52.360;9.974;2024-02-21T08:53:51;87266.91;;;-145.17;57.86
32759;BME280;19125;52.360;9.974;2024-02-21T08:56:17;87225.22;;;-145.17;57.86
32759;BME280;19125;52.360;9.974;2024-02-21T08:58:43;87199.41;;;-145.17;57.46
32759;BME280;19125;52.360;9.974;2024-02-21T09:01:09;87163.69;;;-145.17;57.55
32759;BME280;19125;52.360;9.974;2024-02-21T09:03:38;87183.53;;;-145.17;57.11
32759;BME280;19125;52.360;9.974;2024-02-21T09:06:05;87153.78;;;-145.17;56.83
32759;BME280;19125;52.360;9.974;2024-02-21T09:08:31;87131.94;;;-145.17;56.76
32759;BME280;19125;52.360;9.974;2024-02-21T09:10:56;87066.44;;;-145.17;56.28
32759;BME280;19125;52.360;9.974;2024-02-21T09:13:23;87068.41;;;-145.17;55.68
32759;BME280;19125;52.360;9.974;2024-02-21T09:15:49;86981.09;;;-145.17;55.32
32759;BME280;19125;52.360;9.974;2024-02-21T09:18:15;86905.66;;;-145.17;55.13
32759;BME280;19125;52.360;9.974;2024-02-21T09:20:41;86945.38;;;-145.17;54.40
32759;BME280;19125;52.360;9.974;2024-02-21T09:23:06;86907.66;;;-145.17;54.27
32759;BME280;19125;52.360;9.974;2024-02-21T09:25:32;86877.88;;;-145.17;53.95
32759;BME280;19125;52.360;9.974;2024-02-21T09:27:57;86873.91;;;-145.17;53.62
32759;BME280;19125;52.360;9.974;2024-02-21T09:30:24;86842.16;;;-145.17;53.13
32759;BME280;19125;52.360;9.974;2024-02-21T09:32:51;86834.22;;;-145.17;53.05
32759;BME280;19125;52.360;9.974;2024-02-21T09:35:19;86842.16;;;-145.17;52.60
32759;BME280;19125;52.360;9.974;2024-02-21T09:37:44;86810.41;;;-145.17;52.44
32759;BME280;19125;52.360;9.974;2024-02-21T09:40:10;86754.84;;;-145.17;52.11
32759;BME280;19125;52.360;9.974;2024-02-21T09:42:41;86754.84;;;-145.17;51.58
32759;BME280;19125;52.360;9.974;2024-02-21T09:47:54;86738.94;;;-145.17;51.31
32759;BME280;19125;52.360;9.974;2024-02-21T09:50:24;86685.38;;;-145.17;50.55
32759;BME280;19125;52.360;9.974;2024-02-21T09:52:53;86687.34;;;-145.17;49.98
32759;BME280;19125;52.360;9.974;2024-02-21T09:55:20;86659.56;;;-145.17;49.58
32759;BME280;19125;52.360;9.974;2024-02-21T09:57:46;86675.44;;;-145.17;49.38
32759;BME280;19125;52.360;9.974;2024-02-21T10:00:12;86695.28;;;-145.17;49.28
32759;BME280;19125;52.360;9.974;2024-02-21T10:02:46;86639.72;;;-145.17;48.78
32759;BME280;19125;52.360;9.974;2024-02-21T10:05:12;86691.31;;;-145.17;49.15
32759;BME280;19125;52.360;9.974;2024-02-21T10:07:38;86669.50;;;-145.17;49.39
32759;BME280;19125;52.360;9.974;2024-02-21T10:10:05;86655.59;;;-145.17;49.22
32759;BME280;19125;52.360;9.974;2024-02-21T10:12:30;86695.28;;;-145.17;49.06
32759;BME280;19125;52.360;9.974;2024-02-21T10:15:03;86695.28;;;-145.17;48.99
32759;BME280;19125;52.360;9.974;2024-02-21T10:17:28;86701.25;;;-145.17;48.93
32759;BME280;19125;52.360;9.974;2024-02-21T10:19:54;86707.19;;;-145.17;48.76
32759;BME280;19125;52.360;9.974;2024-02-21T10:22:19;86733.00;;;-145.17;48.49
32759;BME280;19125;52.360;9.974;2024-02-21T10:24:48;86734.97;;;-145.17;48.74
32759;BME280;19125;52.360;9.974;2024-02-21T10:27:14;86740.94;;;-145.17;48.66
32759;BME280;19125;52.360;9.974;2024-02-21T10:29:40;86782.63;;;-145.17;48.79
32759;BME280;19125;52.360;9.974;2024-02-21T10:32:08;86703.22;;;-145.17;48.77
32759;BME280;19125;52.360;9.974;2024-02-21T10:34:34;86750.88;;;-145.17;48.77
32759;BME280;19125;52.360;9.974;2024-02-21T10:37:07;86699.25;;;-145.17;48.46
32759;BME280;19125;52.360;9.974;2024-02-21T10:39:34;86703.22;;;-145.17;48.92
32759;BME280;19125;52.360;9.974;2024-02-21T10:42:01;86689.34;;;-145.17;48.23
32759;BME280;19125;52.360;9.974;2024-02-21T10:44:31;86665.53;;;-145.17;48.41
32759;BME280;19125;52.360;9.974;2024-02-21T10:46:57;86607.97;;;-145.17;48.20
32759;BME280;19125;52.360;9.974;2024-02-21T10:49:23;86655.59;;;-145.17;47.80
32759;BME280;19125;52.360;9.974;2024-02-21T10:52:13;86695.28;;;-145.17;47.57
32759;BME280;19125;52.360;9.974;2024-02-21T10:54:56;86663.53;;;-145.17;47.25
32759;BME280;19125;52.360;9.974;2024-02-21T10:57:26;86647.66;;;-145.17;47.14
32759;BME280;19125;52.360;9.974;2024-02-21T10:59:55;86635.75;;;-145.17;46.83
32759;BME280;19125;52.360;9.974;2024-02-21T11:02:21;86604.00;;;-145.17;46.84
32759;BME280;19125;52.360;9.974;2024-02-21T11:04:47;86594.06;;;-145.17;46.66
32759;BME280;19125;52.360;9.974;2024-02-21T11:07:15;86607.97;;;-145.17;45.75
32759;BME280;19125;52.360;9.974;2024-02-21T11:09:50;86611.94;;;-145.17;45.72
32759;BME280;19125;52.360;9.974;2024-02-21T11:12:20;86596.06;;;-145.17;45.69
32759;BME280;19125;52.360;9.974;2024-02-21T11:14:46;86602.00;;;-145.17;45.34
32759;BME280;19125;52.360;9.974;2024-02-21T11:17:16;86568.28;;;-145.17;45.05
32759;BME280;19125;52.360;9.974;2024-02-21T11:19:42;86584.16;;;-145.17;45.10
32759;BME280;19125;52.360;9.974;2024-02-21T11:22:15;86580.19;;;-145.17;44.49
32759;BME280;19125;52.360;9.974;2024-02-21T11:24:45;86560.34;;;-145.17;44.84
32759;BME280;19125;52.360;9.974;2024-02-21T11:27:21;86572.25;;;-145.17;44.95
32759;BME280;19125;52.360;9.974;2024-02-21T11:29:56;86566.28;;;-145.17;44.95
32759;BME280;19125;52.360;9.974;2024-02-21T11:32:23;86532.56;;;-145.17;44.87
32759;BME280;19125;52.360;9.974;2024-02-21T11:34:58;86544.47;;;-145.17;44.45
32759;BME280;19125;52.360;9.974;2024-02-21T11:37:28;86530.56;;;-145.17;44.30
32759;BME280;19125;52.360;9.974;2024-02-21T11:39:57;86562.31;;;-145.17;43.99
32759;BME280;19125;52.360;9.974;2024-02-21T11:42:25;86580.19;;;-145.17;43.66
32759;BME280;19125;52.360;9.974;2024-02-21T11:44:50;86534.53;;;-145.17;43.99
32759;BME280;19125;52.360;9.974;2024-02-21T11:47:17;86550.41;;;-145.17;43.73
32759;BME280;19125;52.360;9.974;2024-02-21T11:49:45;86534.53;;;-145.17;44.07
32759;BME280;19125;52.360;9.974;2024-02-21T11:52:16;86502.78;;;-145.17;43.87
32759;BME280;19125;52.360;9.974;2024-02-21T11:54:42;86510.72;;;-145.17;43.51
32759;BME280;19125;52.360;9.974;2024-02-21T11:57:08;86514.69;;;-145.17;43.51
32759;BME280;19125;52.360;9.974;2024-02-21T11:59:34;86530.56;;;-145.17;42.84
32759;BME280;19125;52.360;9.974;2024-02-21T12:02:01;86542.47;;;-145.17;42.85
32759;BME280;19125;52.360;9.974;2024-02-21T12:04:29;86538.50;;;-145.17;42.75
32759;BME280;19125;52.360;9.974;2024-02-21T12:06:56;86538.50;;;-145.17;42.94
32759;BME280;19125;52.360;9.974;2024-02-21T12:09:23;86552.41;;;-145.17;42.81
32759;BME280;19125;52.360;9.974;2024-02-21T12:12:06;86560.34;;;-145.17;42.86
32759;BME280;19125;52.360;9.974;2024-02-21T12:14:39;86536.53;;;-145.17;42.73
32759;BME280;19125;52.360;9.974;2024-02-21T12:17:05;86514.69;;;-145.17;42.65
32759;BME280;19125;52.360;9.974;2024-02-21T12:19:31;86500.81;;;-145.17;42.67
32759;BME280;19125;52.360;9.974;2024-02-21T12:21:56;86510.72;;;-145.17;42.65
32759;BME280;19125;52.360;9.974;2024-02-21T12:24:25;86544.47;;;-145.17;42.55
32759;BME280;19125;52.360;9.974;2024-02-21T12:26:54;86500.81;;;-145.17;42.05
32759;BME280;19125;52.360;9.974;2024-02-21T12:29:20;86425.38;;;-145.17;42.18
32759;BME280;19125;52.360;9.974;2024-02-21T12:31:45;86516.69;;;-145.17;42.67
32759;BME280;19125;52.360;9.974;2024-02-21T12:34:11;86502.78;;;-145.17;42.44
32759;BME280;19125;52.360;9.974;2024-02-21T12:36:45;86520.66;;;-145.17;42.30
32759;BME280;19125;52.360;9.974;2024-02-21T12:39:14;86512.72;;;-145.17;42.31